createdAt,value
2023-02-27T16:03:35.620Z,101568.09
2023-02-27T16:04:42.730Z,101574.56
2023-02-27T16:05:51.885Z,101569.31
2023-02-27T16:07:05.700Z,101573.69
2023-02-27T16:08:17.576Z,101577.28
2023-02-27T16:09:26.145Z,101573.91
2023-02-27T16:10:37.214Z,101575.59
2023-02-27T16:11:44.512Z,101578.72
2023-02-27T16:12:51.392Z,101575.34
2023-02-27T16:13:57.187Z,101580.78
2023-02-27T16:15:29.290Z,101585.19
2023-02-27T16:16:39.048Z,101578.72
2023-02-27T16:17:57.135Z,101584.34
2023-02-27T16:19:17.432Z,101590.63
2023-02-27T16:20:41.314Z,101587.06
2023-02-27T16:22:09.736Z,101586.22
2023-02-27T16:23:28.096Z,101581.19
2023-02-27T16:24:37.830Z,101582.88
2023-02-27T16:26:07.477Z,101574.91
2023-02-27T16:27:21.283Z,101579.28
2023-02-27T16:28:28.396Z,101578.38
2023-02-27T16:29:38.602Z,101577.69
2023-02-27T16:30:44.101Z,101577.22
2023-02-27T16:31:52.283Z,101577.63
2023-02-27T16:33:03.048Z,101578.69
2023-02-27T16:34:35.573Z,101572.97
2023-02-27T16:35:50.931Z,101570.63
2023-02-27T16:36:58.903Z,101573.34
2023-02-27T16:38:05.112Z,101566.69
2023-02-27T16:39:15.523Z,101568.88
2023-02-27T16:40:30.105Z,101568.44
2023-02-27T16:41:39.646Z,101572.66
2023-02-27T16:42:45.107Z,101566.38
2023-02-27T16:43:56.478Z,101561.59
2023-02-27T16:45:03.056Z,101570.38
2023-02-27T16:46:09.724Z,101564.13
2023-02-27T16:47:16.328Z,101562.91
2023-02-27T16:48:21.547Z,101563.53
2023-02-27T16:49:33.584Z,101554.34
2023-02-27T16:50:42.208Z,101557.69
2023-02-27T16:51:48.878Z,101557.50
2023-02-27T16:52:55.459Z,101555.63
2023-02-27T16:54:03.480Z,101554.38
2023-02-27T16:55:12.275Z,101555.22
2023-02-27T16:56:23.680Z,101558.72
2023-02-27T16:57:35.993Z,101554.09
2023-02-27T16:58:41.445Z,101550.94
2023-02-27T16:59:48.167Z,101550.94
2023-02-27T17:00:53.400Z,101548.22
2023-02-27T17:02:00.251Z,101553.47
2023-02-27T17:03:06.879Z,101550.75
2023-02-27T17:04:25.008Z,101558.03
2023-02-27T17:05:33.986Z,101554.50
2023-02-27T17:06:39.260Z,101555.34
2023-02-27T17:07:46.257Z,101548.84
2023-02-27T17:08:52.928Z,101548.66
2023-02-27T17:10:00.172Z,101548.44
2023-02-27T17:11:09.481Z,101550.16
2023-02-27T17:12:18.948Z,101549.94
2023-02-27T17:13:24.208Z,101544.31
2023-02-27T17:14:30.887Z,101546.41
2023-02-27T17:15:37.435Z,101556.41
2023-02-27T17:16:44.042Z,101552.03
2023-02-27T17:17:50.719Z,101545.09
2023-02-27T17:18:57.308Z,101544.47
2023-02-27T17:20:06.779Z,101546.72
2023-02-27T17:21:13.716Z,101551.31
2023-02-27T17:22:20.422Z,101550.50
2023-02-27T17:23:27.426Z,101547.78
2023-02-27T17:24:44.347Z,101539.84
2023-02-27T17:25:51.299Z,101542.34
2023-02-27T17:27:01.236Z,101541.72
2023-02-27T17:28:08.565Z,101540.00
2023-02-27T17:29:16.840Z,101539.56
2023-02-27T17:30:23.873Z,101542.47
2023-02-27T17:31:30.541Z,101538.47
2023-02-27T17:32:38.224Z,101531.53
2023-02-27T17:33:46.502Z,101534.66
2023-02-27T17:34:55.509Z,101533.56
2023-02-27T17:36:07.193Z,101529.38
2023-02-27T17:37:18.087Z,101540.44
2023-02-27T17:38:24.688Z,101531.84
2023-02-27T17:39:30.008Z,101529.13
2023-02-27T17:40:44.629Z,101529.13
2023-02-27T17:41:55.059Z,101531.84
2023-02-27T17:43:01.627Z,101523.06
2023-02-27T17:44:08.351Z,101531.41
2023-02-27T17:45:17.666Z,101531.41
2023-02-27T17:46:27.003Z,101533.06
2023-02-27T17:47:34.896Z,101536.41
2023-02-27T17:48:43.156Z,101531.00
2023-02-27T17:49:53.324Z,101528.09
2023-02-27T17:51:01.297Z,101533.31
2023-02-27T17:52:08.572Z,101526.84
2023-02-27T17:53:17.245Z,101533.31
2023-02-27T17:54:23.941Z,101523.50
2023-02-27T17:55:29.175Z,101529.31
2023-02-27T17:56:37.007Z,101524.28
2023-02-27T17:57:43.947Z,101520.53
2023-02-27T17:58:50.511Z,101518.88
2023-02-27T17:59:57.091Z,101521.38
2023-02-27T18:01:08.498Z,101522.84
2023-02-27T18:02:15.277Z,101520.78
2023-02-27T18:03:20.755Z,101523.50
2023-02-27T18:04:27.888Z,101518.09
2023-02-27T18:05:34.622Z,101524.13
2023-02-27T18:06:45.388Z,101522.06
2023-02-27T18:07:53.470Z,101516.44
2023-02-27T18:09:07.570Z,101520.00
2023-02-27T18:10:15.706Z,101522.72
2023-02-27T18:11:23.897Z,101514.78
2023-02-27T18:13:48.626Z,101512.25
2023-02-27T18:14:55.272Z,101512.25
2023-02-27T18:16:02.202Z,101510.56
2023-02-27T18:17:13.266Z,101515.16
2023-02-27T18:18:19.920Z,101510.56
2023-02-27T18:19:26.749Z,101502.63
2023-02-27T18:20:34.154Z,101510.56
2023-02-27T18:21:41.724Z,101504.09
2023-02-27T18:22:50.457Z,101504.75
2023-02-27T18:23:57.972Z,101502.69
2023-02-27T18:25:08.177Z,101495.38
2023-02-27T18:26:29.334Z,101500.41
2023-02-27T18:27:37.392Z,101502.72
2023-02-27T18:28:44.165Z,101492.69
2023-02-27T18:29:50.848Z,101492.53
2023-02-27T18:30:57.742Z,101494.38
2023-02-27T18:32:04.839Z,101489.81
2023-02-27T18:33:12.559Z,101491.66
2023-02-27T18:34:19.209Z,101494.19
2023-02-27T18:35:24.671Z,101489.59
2023-02-27T18:36:31.898Z,101482.50
2023-02-27T18:37:38.809Z,101484.38
2023-02-27T18:38:47.427Z,101481.47
2023-02-27T18:39:54.128Z,101476.03
2023-02-27T18:41:02.238Z,101484.81
2023-02-27T18:42:12.788Z,101478.75
2023-02-27T18:43:18.107Z,101478.53
2023-02-27T18:44:24.763Z,101481.03
2023-02-27T18:45:33.849Z,101482.09
2023-02-27T18:46:49.310Z,101484.56
2023-02-27T18:47:58.200Z,101487.47
2023-02-27T18:49:04.981Z,101481.41
2023-02-27T18:50:10.930Z,101475.16
2023-02-27T18:51:24.711Z,101483.31
2023-02-27T18:52:38.504Z,101480.38
2023-02-27T18:53:46.740Z,101476.81
2023-02-27T18:54:53.437Z,101479.72
2023-02-27T18:56:04.859Z,101482.25
2023-02-27T18:57:11.851Z,101483.09
2023-02-27T18:58:18.680Z,101483.94
2023-02-27T18:59:25.696Z,101484.75
2023-02-27T19:00:32.367Z,101483.94
2023-02-27T19:01:39.789Z,101478.50
2023-02-27T19:02:46.471Z,101473.06
2023-02-27T19:03:57.206Z,101469.53
2023-02-27T19:05:07.185Z,101478.50
2023-02-27T19:06:13.733Z,101468.47
2023-02-27T19:07:21.180Z,101478.50
2023-02-27T19:08:30.542Z,101467.00
2023-02-27T19:09:37.131Z,101470.75
2023-02-27T19:10:42.559Z,101464.69
2023-02-27T19:11:51.162Z,101473.03
2023-02-27T19:12:58.052Z,101475.09
2023-02-27T19:14:13.972Z,101466.31
2023-02-27T19:15:20.982Z,101470.69
2023-02-27T19:16:26.757Z,101467.16
2023-02-27T19:17:33.914Z,101467.34
2023-02-27T19:18:40.510Z,101468.41
2023-02-27T19:19:47.137Z,101464.00
2023-02-27T19:20:57.368Z,101458.75
2023-02-27T19:22:05.211Z,101457.09
2023-02-27T19:23:10.464Z,101457.09
2023-02-27T19:24:18.181Z,101454.38
2023-02-27T19:25:24.014Z,101450.19
2023-02-27T19:26:30.841Z,101453.75
2023-02-27T19:27:47.405Z,101455.63
2023-02-27T19:28:55.199Z,101457.28
2023-02-27T19:30:02.841Z,101447.66
2023-02-27T19:31:13.715Z,101453.28
2023-02-27T19:32:19.060Z,101444.31
2023-02-27T19:33:27.236Z,101439.94
2023-02-27T19:34:39.896Z,101450.78
2023-02-27T19:35:46.552Z,101442.63
2023-02-27T19:36:53.177Z,101440.56
2023-02-27T19:38:00.650Z,101443.28
2023-02-27T19:39:06.867Z,101435.13
2023-02-27T19:40:15.477Z,101442.22
2023-02-27T19:41:22.745Z,101437.63
2023-02-27T19:42:39.554Z,101440.34
2023-02-27T19:43:57.578Z,101434.28
2023-02-27T19:45:04.271Z,101434.28
2023-02-27T19:46:13.103Z,101427.00
2023-02-27T19:47:18.820Z,101434.50
2023-02-27T23:10:40.946Z,101534.41
2023-02-27T23:11:49.787Z,101539.66
2023-02-27T23:12:55.178Z,101548.63
2023-02-27T23:14:01.932Z,101549.66
2023-02-27T23:15:08.002Z,101548.63
2023-02-27T23:16:15.086Z,101553.00
2023-02-27T23:17:20.596Z,101556.75
2023-02-27T23:18:27.353Z,101545.44
2023-02-27T23:19:36.924Z,101555.63
2023-02-27T23:20:45.458Z,101550.41
2023-02-27T23:21:53.993Z,101552.09
2023-02-27T23:22:59.404Z,101559.19
2023-02-27T23:24:08.360Z,101559.81
2023-02-27T23:25:13.762Z,101560.50
2023-02-27T23:26:20.447Z,101558.78
2023-02-27T23:27:27.613Z,101563.19
2023-02-27T23:28:37.184Z,101556.06
2023-02-27T23:29:46.032Z,101569.63
2023-02-27T23:30:52.255Z,101570.66
2023-02-27T23:31:59.058Z,101572.53
2023-02-27T23:33:10.882Z,101571.69
2023-02-27T23:34:17.992Z,101571.06
2023-02-27T23:35:25.613Z,101578.50
2023-02-27T23:36:34.278Z,101577.88
2023-02-27T23:37:40.406Z,101583.50
2023-02-27T23:38:48.982Z,101581.81
2023-02-27T23:39:56.292Z,101586.19
2023-02-27T23:41:08.987Z,101590.78
2023-02-27T23:42:32.162Z,101586.19
2023-02-27T23:43:57.841Z,101590.78
2023-02-27T23:45:13.920Z,101591.63
2023-02-27T23:46:19.394Z,101597.88
2023-02-27T23:47:42.550Z,101595.16
2023-02-27T23:48:49.354Z,101606.84
2023-02-27T23:49:55.419Z,101611.41
2023-02-27T23:51:07.095Z,101604.31
2023-02-27T23:52:16.638Z,101607.88
2023-02-27T23:53:23.488Z,101606.63
2023-02-27T23:54:32.176Z,101606.28
2023-02-27T23:55:40.438Z,101611.03
2023-02-27T23:57:56.917Z,101606.28
2023-02-27T23:59:08.075Z,101610.28
